createdAt,value
2019-04-26T00:00:10.824Z,99928
2019-04-26T00:01:10.812Z,99934
2019-04-26T00:02:11.053Z,99934
2019-04-26T00:03:11.108Z,99935
2019-04-26T00:04:11.077Z,99940
2019-04-26T00:05:11.481Z,99938
2019-04-26T00:06:11.377Z,99939
2019-04-26T00:07:11.502Z,99944
2019-04-26T00:08:12.715Z,99943
2019-04-26T00:09:12.748Z,99954
2019-04-26T00:10:12.885Z,99955
2019-04-26T00:11:12.993Z,99959
2019-04-26T00:12:13.378Z,99957
2019-04-26T00:13:13.192Z,99962
2019-04-26T00:14:13.206Z,99968
2019-04-26T00:15:13.459Z,99963
2019-04-26T00:16:13.735Z,99957
2019-04-26T00:17:12.542Z,99957
2019-04-26T00:18:13.714Z,99957
2019-04-26T00:19:12.746Z,99961
2019-04-26T00:20:13.898Z,99960
2019-04-26T00:21:13.246Z,99959
2019-04-26T00:22:14.065Z,99964
2019-04-26T00:23:13.103Z,99966
2019-04-26T00:24:14.190Z,99966
2019-04-26T00:25:13.463Z,99962
2019-04-26T00:26:14.554Z,99961
2019-04-26T00:27:13.800Z,99957
2019-04-26T00:28:13.667Z,99956
2019-04-26T00:29:13.795Z,99949
2019-04-26T00:30:13.924Z,99954
2019-04-26T00:31:14.111Z,99947
2019-04-26T00:32:14.060Z,99947
2019-04-26T00:33:14.206Z,99945
2019-04-26T00:34:14.446Z,99951
2019-04-26T00:35:14.715Z,99958
2019-04-26T00:36:15.623Z,99962
2019-04-26T00:37:14.921Z,99959
2019-04-26T00:38:15.093Z,99960
2019-04-26T00:39:15.120Z,99959
2019-04-26T00:40:15.145Z,99960
2019-04-26T00:41:15.387Z,99961
2019-04-26T00:42:15.464Z,99972
2019-04-26T00:43:15.379Z,99980
2019-04-26T00:44:15.616Z,99984
2019-04-26T00:45:15.689Z,99985
2019-04-26T00:46:15.753Z,99986
2019-04-26T00:47:15.988Z,99983
2019-04-26T00:48:15.868Z,99987
2019-04-26T00:49:16.068Z,99993
2019-04-26T00:50:16.090Z,99992
2019-04-26T00:51:16.189Z,100005
2019-04-26T00:52:16.423Z,100005
2019-04-26T00:53:16.461Z,100015
2019-04-26T00:54:17.010Z,100016
2019-04-26T00:55:16.597Z,100008
2019-04-26T00:56:16.992Z,100010
2019-04-26T00:57:17.157Z,100010
2019-04-26T00:58:17.227Z,100003
2019-04-26T00:59:17.408Z,100007
2019-04-26T01:00:18.484Z,100010
2019-04-26T01:01:17.641Z,100008
2019-04-26T01:02:17.594Z,100006
2019-04-26T01:03:17.601Z,100003
2019-04-26T01:04:17.811Z,100007
2019-04-26T01:05:17.831Z,100001
2019-04-26T01:06:17.859Z,99994
2019-04-26T01:07:18.066Z,99990
2019-04-26T01:08:18.199Z,99987
2019-04-26T01:09:18.481Z,99983
2019-04-26T01:10:18.569Z,99988
2019-04-26T01:11:18.684Z,99997
2019-04-26T01:12:18.736Z,100006
2019-04-26T01:13:18.900Z,100006
2019-04-26T01:14:18.914Z,100009
2019-04-26T01:15:20.362Z,100004
2019-04-26T01:16:19.137Z,100004
2019-04-26T01:17:19.323Z,100003
2019-04-26T01:18:19.176Z,100009
2019-04-26T01:19:19.336Z,100007
2019-04-26T01:20:19.405Z,100007
2019-04-26T01:21:19.590Z,100008
2019-04-26T01:22:20.185Z,100012
2019-04-26T01:23:19.899Z,100011
2019-04-26T01:24:20.100Z,100013
2019-04-26T01:25:20.163Z,100018
2019-04-26T01:26:20.097Z,100016
2019-04-26T01:27:20.322Z,100014
2019-04-26T01:28:20.293Z,100017
2019-04-26T01:29:20.707Z,100013
2019-04-26T01:30:20.713Z,100017
2019-04-26T01:31:20.877Z,100015
2019-04-26T01:32:21.019Z,100021
2019-04-26T01:33:20.920Z,100019
2019-04-26T01:34:21.043Z,100021
2019-04-26T01:35:21.169Z,100020
2019-04-26T01:36:21.285Z,100011
2019-04-26T01:37:21.521Z,100015
2019-04-26T01:38:22.581Z,100010
2019-04-26T01:39:22.739Z,100013
2019-04-26T01:40:23.073Z,100013
2019-04-26T01:41:23.111Z,100014
2019-04-26T01:42:23.267Z,100018
2019-04-26T01:43:23.428Z,100020
2019-04-26T01:44:23.580Z,100025
2019-04-26T01:45:22.660Z,100027
2019-04-26T01:46:23.801Z,100032
2019-04-26T01:47:23.143Z,100034
2019-04-26T01:48:24.097Z,100033
2019-04-26T01:49:23.154Z,100035
2019-04-26T01:50:24.309Z,100031
2019-04-26T01:51:23.480Z,100041
2019-04-26T01:52:24.501Z,100044
2019-04-26T01:53:23.572Z,100047
2019-04-26T01:54:24.664Z,100043
2019-04-26T01:55:23.828Z,100040
2019-04-26T01:56:24.063Z,100037
2019-04-26T01:57:24.191Z,100032
2019-04-26T01:58:24.166Z,100029
2019-04-26T01:59:24.231Z,100033
2019-04-26T02:00:24.497Z,100030
2019-04-26T02:01:24.401Z,100031
2019-04-26T02:02:24.605Z,100030
2019-04-26T02:03:24.581Z,100033
2019-04-26T02:04:24.767Z,100036
2019-04-26T02:05:24.832Z,100041
2019-04-26T02:07:25.130Z,100040
2019-04-26T02:08:25.169Z,100043
2019-04-26T02:09:25.400Z,100036
2019-04-26T02:10:25.561Z,100037
2019-04-26T02:11:25.715Z,100034
2019-04-26T02:12:25.776Z,100031
2019-04-26T02:13:25.838Z,100034
2019-04-26T02:14:25.952Z,100029
2019-04-26T02:15:26.028Z,100035
2019-04-26T02:16:26.021Z,100035
2019-04-26T02:17:26.296Z,100036
2019-04-26T02:18:26.344Z,100040
2019-04-26T02:19:26.468Z,100041
2019-04-26T02:20:26.584Z,100047
2019-04-26T02:21:26.873Z,100043
2019-04-26T02:22:26.836Z,100050
2019-04-26T02:23:26.869Z,100046
2019-04-26T02:24:26.996Z,100046
2019-04-26T02:25:27.073Z,100050
2019-04-26T02:26:27.303Z,100045
2019-04-26T02:27:27.229Z,100044
2019-04-26T02:28:27.304Z,100048
2019-04-26T02:29:27.478Z,100038
2019-04-26T02:30:29.085Z,100039
2019-04-26T02:31:29.190Z,100039
2019-04-26T02:32:29.376Z,100035
2019-04-26T02:33:29.600Z,100034
2019-04-26T02:34:29.735Z,100031
2019-04-26T02:35:28.889Z,100033
2019-04-26T02:36:47.733Z,100033
2019-04-26T02:37:30.610Z,100031
2019-04-26T02:38:29.628Z,100034
2019-04-26T02:39:30.047Z,100032
2019-04-26T02:40:29.895Z,100036
2019-04-26T02:41:29.880Z,100041
2019-04-26T02:42:30.711Z,100041
2019-04-26T02:43:30.166Z,100057
2019-04-26T02:44:31.202Z,100063
2019-04-26T02:45:30.835Z,100055
2019-04-26T02:46:31.149Z,100057
2019-04-26T02:47:30.875Z,100049
2019-04-26T02:48:30.760Z,100046
2019-04-26T02:49:31.198Z,100044
2019-04-26T02:50:31.090Z,100038
2019-04-26T02:51:30.774Z,100040
2019-04-26T02:52:31.753Z,100033
2019-04-26T02:53:31.481Z,100033
2019-04-26T02:54:31.389Z,100031
2019-04-26T02:55:31.316Z,100025
2019-04-26T02:56:32.110Z,100025
2019-04-26T02:57:31.342Z,100022
2019-04-26T02:58:31.870Z,100031
2019-04-26T02:59:32.287Z,100029
2019-04-26T03:00:32.085Z,100034
2019-04-26T03:01:32.222Z,100033
2019-04-26T03:02:33.052Z,100038
2019-04-26T03:03:32.148Z,100043
2019-04-26T03:04:32.627Z,100041
2019-04-26T03:05:32.090Z,100046
2019-04-26T03:06:32.678Z,100049
2019-04-26T03:07:33.758Z,100054
2019-04-26T03:08:33.843Z,100049
2019-04-26T03:09:33.630Z,100047
2019-04-26T03:10:34.548Z,100045
2019-04-26T03:11:33.769Z,100044
2019-04-26T03:12:34.354Z,100043
2019-04-26T03:13:34.799Z,100045
2019-04-26T03:14:34.906Z,100043
2019-04-26T03:15:33.854Z,100043
2019-04-26T03:16:35.116Z,100046
2019-04-26T03:17:34.044Z,100048
2019-04-26T03:18:35.457Z,100047
2019-04-26T03:19:34.014Z,100056
2019-04-26T03:20:34.903Z,100061
2019-04-26T03:21:34.464Z,100067
2019-04-26T03:22:35.596Z,100074
2019-04-26T03:24:34.981Z,100077
2019-04-26T03:25:35.118Z,100082
2019-04-26T03:26:35.561Z,100085
2019-04-26T03:27:35.638Z,100081
2019-04-26T03:28:35.388Z,100082
2019-04-26T03:29:35.353Z,100087
2019-04-26T03:30:38.934Z,100085
2019-04-26T03:31:40.826Z,100086
2019-04-26T03:32:40.274Z,100088
2019-04-26T03:33:39.729Z,100086
2019-04-26T03:34:40.148Z,100085
2019-04-26T03:35:41.003Z,100084
2019-04-26T03:36:37.330Z,100083
2019-04-26T03:37:36.431Z,100087
2019-04-26T03:38:36.146Z,100086
2019-04-26T03:39:37.071Z,100087
2019-04-26T03:40:36.683Z,100088
2019-04-26T03:41:37.065Z,100085
2019-04-26T03:42:36.973Z,100088
2019-04-26T03:43:36.774Z,100086
2019-04-26T03:44:36.996Z,100083
2019-04-26T03:45:36.859Z,100086
2019-04-26T03:46:37.518Z,100074
2019-04-26T03:47:38.472Z,100074
2019-04-26T03:48:37.714Z,100072
2019-04-26T03:49:37.830Z,100068
2019-04-26T03:50:37.699Z,100064
2019-04-26T03:51:37.461Z,100061
2019-04-26T03:52:37.793Z,100063
2019-04-26T03:53:38.063Z,100060
2019-04-26T03:54:37.774Z,100064
2019-04-26T03:55:38.200Z,100059
2019-04-26T03:56:38.420Z,100063
2019-04-26T03:57:38.726Z,100076
2019-04-26T03:58:38.429Z,100084
2019-04-26T03:59:38.805Z,100090
2019-04-26T04:00:39.249Z,100097
2019-04-26T04:01:39.357Z,100097
2019-04-26T04:02:39.196Z,100090
2019-04-26T04:03:40.234Z,100083
2019-04-26T04:04:39.375Z,100084
2019-04-26T04:05:40.041Z,100090
2019-04-26T04:07:43.543Z,100086
2019-04-26T04:08:40.429Z,100089
2019-04-26T04:09:39.726Z,100086
2019-04-26T04:10:39.924Z,100089
2019-04-26T04:11:40.600Z,100094
2019-04-26T04:12:40.196Z,100099
2019-04-26T04:13:41.320Z,100095
2019-04-26T04:14:40.425Z,100087
2019-04-26T04:15:40.361Z,100084
2019-04-26T04:16:41.099Z,100084
2019-04-26T04:17:41.685Z,100087
2019-04-26T04:18:40.383Z,100086
2019-04-26T04:19:40.651Z,100091
2019-04-26T04:20:40.801Z,100091
2019-04-26T04:21:41.160Z,100086
2019-04-26T04:22:41.650Z,100088
2019-04-26T04:23:41.758Z,100093
2019-04-26T04:24:41.583Z,100086
2019-04-26T04:25:42.057Z,100090
2019-04-26T04:26:41.428Z,100092
2019-04-26T04:27:41.779Z,100095
2019-04-26T04:28:42.413Z,100092
2019-04-26T04:29:47.039Z,100102
2019-04-26T04:30:42.195Z,100109
2019-04-26T04:31:42.105Z,100110
2019-04-26T04:32:42.377Z,100112
2019-04-26T04:33:43.510Z,100116
2019-04-26T04:34:43.936Z,100110
2019-04-26T04:35:44.204Z,100113
2019-04-26T04:36:44.465Z,100110
2019-04-26T04:38:44.536Z,100112
2019-04-26T04:39:44.790Z,100116
2019-04-26T04:40:43.573Z,100117
2019-04-26T04:41:43.695Z,100116
2019-04-26T04:42:44.339Z,100115
2019-04-26T04:43:45.114Z,100115
2019-04-26T04:44:44.696Z,100109
2019-04-26T04:45:44.346Z,100106
2019-04-26T04:46:45.752Z,100109
2019-04-26T04:47:45.760Z,100108
2019-04-26T04:48:45.004Z,100104
2019-04-26T04:49:44.880Z,100110
2019-04-26T04:50:45.318Z,100107
2019-04-26T04:51:44.669Z,100109
2019-04-26T04:52:44.921Z,100112
2019-04-26T04:53:45.029Z,100109
2019-04-26T04:54:44.937Z,100112
2019-04-26T04:55:45.059Z,100113
2019-04-26T04:56:44.490Z,100115
2019-04-26T04:57:44.776Z,100116
2019-04-26T04:58:45.137Z,100116
2019-04-26T04:59:45.110Z,100108
2019-04-26T05:00:46.188Z,100115
2019-04-26T05:01:45.209Z,100114
2019-04-26T05:02:45.529Z,100117
2019-04-26T05:03:45.850Z,100120
2019-04-26T05:04:45.799Z,100121
2019-04-26T05:05:45.952Z,100112
2019-04-26T05:06:45.984Z,100107
2019-04-26T05:07:46.310Z,100107
2019-04-26T05:08:48.745Z,100108
2019-04-26T05:09:46.392Z,100102
2019-04-26T05:10:46.647Z,100100
2019-04-26T05:11:46.634Z,100098
2019-04-26T05:12:46.893Z,100098
2019-04-26T05:13:46.853Z,100105
2019-04-26T05:14:47.009Z,100105
2019-04-26T05:15:47.443Z,100115
2019-04-26T05:16:47.325Z,100117
2019-04-26T05:17:48.487Z,100116
2019-04-26T05:18:47.520Z,100107
2019-04-26T05:19:47.525Z,100104
2019-04-26T05:20:47.766Z,100107
2019-04-26T05:21:47.810Z,100110
2019-04-26T05:22:48.044Z,100116
2019-04-26T05:23:47.939Z,100123
2019-04-26T05:24:48.111Z,100124
2019-04-26T05:25:48.319Z,100128
2019-04-26T05:26:48.368Z,100129
2019-04-26T05:27:49.912Z,100122
2019-04-26T05:28:48.597Z,100116
2019-04-26T05:29:48.912Z,100118
2019-04-26T05:30:48.878Z,100118
2019-04-26T05:31:49.962Z,100130
2019-04-26T05:32:49.438Z,100132
2019-04-26T05:33:49.319Z,100138
2019-04-26T05:34:49.615Z,100139
2019-04-26T05:35:50.027Z,100139
2019-04-26T05:36:49.600Z,100148
2019-04-26T05:37:50.002Z,100138
2019-04-26T05:38:50.119Z,100135
2019-04-26T05:39:50.106Z,100135
2019-04-26T05:40:50.379Z,100134
2019-04-26T05:41:50.460Z,100135
2019-04-26T05:42:50.566Z,100144
2019-04-26T05:43:50.703Z,100141
2019-04-26T05:44:50.877Z,100148
2019-04-26T05:45:52.833Z,100147
2019-04-26T05:46:52.523Z,100143
2019-04-26T05:48:04.974Z,100144
2019-04-26T05:48:52.545Z,100138
2019-04-26T05:49:52.673Z,100143
2019-04-26T05:50:52.631Z,100137
2019-04-26T05:51:52.585Z,100140
2019-04-26T05:52:54.074Z,100148
2019-04-26T05:53:51.818Z,100152
2019-04-26T05:54:52.973Z,100155
2019-04-26T05:55:52.865Z,100162
2019-04-26T05:56:53.146Z,100159
2019-04-26T05:57:53.210Z,100164
2019-04-26T05:58:53.387Z,100163
2019-04-26T05:59:53.752Z,100165
2019-04-26T06:00:52.616Z,100170
2019-04-26T06:01:53.655Z,100167
2019-04-26T06:02:53.690Z,100163
2019-04-26T06:03:53.251Z,100160
2019-04-26T06:04:54.066Z,100158
2019-04-26T06:05:53.367Z,100164
2019-04-26T06:06:54.110Z,100166
2019-04-26T06:07:53.207Z,100168
2019-04-26T06:08:54.348Z,100167
2019-04-26T06:09:53.396Z,100166
2019-04-26T06:10:54.799Z,100166
2019-04-26T06:11:53.563Z,100167
2019-04-26T06:12:53.496Z,100162
2019-04-26T06:13:54.657Z,100165
2019-04-26T06:14:53.642Z,100165
2019-04-26T06:15:54.890Z,100165
2019-04-26T06:16:53.843Z,100164
2019-04-26T06:17:54.166Z,100161
2019-04-26T06:18:54.138Z,100157
2019-04-26T06:19:54.199Z,100156
2019-04-26T06:20:54.370Z,100163
2019-04-26T06:21:54.869Z,100168
2019-04-26T06:22:56.599Z,100164
2019-04-26T06:23:54.718Z,100165
2019-04-26T06:24:54.936Z,100164
2019-04-26T06:25:57.879Z,100164
2019-04-26T06:27:07.821Z,100160
2019-04-26T06:27:55.205Z,100158
2019-04-26T06:28:58.016Z,100161
2019-04-26T06:29:55.551Z,100161
2019-04-26T06:30:56.224Z,100159
2019-04-26T06:31:56.950Z,100162
2019-04-26T06:32:57.268Z,100162
2019-04-26T06:33:57.712Z,100163
2019-04-26T06:34:56.208Z,100167
2019-04-26T06:35:56.177Z,100168
2019-04-26T06:36:56.489Z,100164
2019-04-26T06:37:56.318Z,100162
2019-04-26T06:38:56.803Z,100165
2019-04-26T06:39:56.817Z,100164
2019-04-26T06:40:57.142Z,100166
2019-04-26T06:41:57.469Z,100168
2019-04-26T06:42:57.179Z,100176
2019-04-26T06:43:57.269Z,100179
2019-04-26T06:44:57.345Z,100182
2019-04-26T06:45:57.444Z,100184
2019-04-26T06:46:58.706Z,100191
2019-04-26T06:47:57.788Z,100187
2019-04-26T06:48:57.926Z,100193
2019-04-26T06:50:02.363Z,100188
2019-04-26T06:51:01.711Z,100200
2019-04-26T06:51:59.398Z,100202
2019-04-26T06:53:00.479Z,100205
2019-04-26T06:53:59.630Z,100205
2019-04-26T06:54:58.707Z,100207
2019-04-26T06:55:59.832Z,100210
2019-04-26T06:57:08.709Z,100212
2019-04-26T06:58:01.728Z,100218
2019-04-26T06:59:00.351Z,100221
2019-04-26T07:00:01.133Z,100228
2019-04-26T07:01:00.082Z,100231
2019-04-26T07:01:59.759Z,100229
2019-04-26T07:03:00.048Z,100229
2019-04-26T07:04:01.031Z,100234
2019-04-26T07:05:01.722Z,100241
2019-04-26T07:06:01.346Z,100235
2019-04-26T07:07:01.499Z,100233
2019-04-26T07:08:05.568Z,100229
2019-04-26T07:09:02.561Z,100228
2019-04-26T07:10:00.825Z,100224
2019-04-26T07:11:01.634Z,100227
2019-04-26T07:12:01.860Z,100226
2019-04-26T07:13:02.983Z,100224
2019-04-26T07:14:01.625Z,100223
2019-04-26T07:15:02.705Z,100221
2019-04-26T07:16:16.292Z,100228
2019-04-26T07:17:01.433Z,100230
2019-04-26T07:18:05.313Z,100232
2019-04-26T07:19:04.533Z,100233
2019-04-26T07:20:03.060Z,100235
2019-04-26T07:21:05.909Z,100235
2019-04-26T07:22:03.112Z,100235
2019-04-26T07:23:02.748Z,100234
2019-04-26T07:24:04.519Z,100236
2019-04-26T07:25:02.493Z,100244
2019-04-26T07:26:02.767Z,100244
2019-04-26T07:27:03.896Z,100243
2019-04-26T07:28:08.025Z,100247
2019-04-26T07:29:03.523Z,100248
2019-04-26T07:30:03.903Z,100242
2019-04-26T07:31:02.924Z,100238
2019-04-26T07:32:04.224Z,100236
2019-04-26T07:33:03.106Z,100231
2019-04-26T07:34:04.156Z,100230
2019-04-26T07:35:03.455Z,100227
2019-04-26T07:36:04.519Z,100225
2019-04-26T07:37:03.558Z,100225
2019-04-26T07:38:03.740Z,100223
2019-04-26T07:40:03.883Z,100223
2019-04-26T07:41:04.109Z,100226
2019-04-26T07:42:04.219Z,100228
2019-04-26T07:43:05.021Z,100228
2019-04-26T07:44:04.532Z,100235
2019-04-26T07:45:04.442Z,100237
2019-04-26T07:46:04.765Z,100241
2019-04-26T07:47:04.825Z,100242
2019-04-26T07:48:08.513Z,100244
2019-04-26T07:49:04.969Z,100249
2019-04-26T07:50:06.319Z,100256
2019-04-26T07:51:05.362Z,100252
2019-04-26T07:52:05.303Z,100256
2019-04-26T07:53:06.128Z,100266
2019-04-26T07:54:05.612Z,100273
2019-04-26T07:55:05.565Z,100277
2019-04-26T07:56:06.062Z,100279
2019-04-26T07:57:05.604Z,100285
2019-04-26T07:58:05.798Z,100285
2019-04-26T07:59:07.564Z,100288
2019-04-26T08:00:07.526Z,100285
2019-04-26T08:01:06.502Z,100287
2019-04-26T08:02:07.948Z,100288
2019-04-26T08:03:07.680Z,100292
2019-04-26T08:04:06.145Z,100298
2019-04-26T08:05:06.290Z,100302
2019-04-26T08:06:06.387Z,100298
2019-04-26T08:07:07.194Z,100301
2019-04-26T08:08:07.542Z,100297
2019-04-26T08:09:06.451Z,100301
2019-04-26T08:10:06.705Z,100297
2019-04-26T08:11:07.623Z,100298
2019-04-26T08:12:06.808Z,100306
2019-04-26T08:13:06.806Z,100307
2019-04-26T08:14:07.309Z,100311
2019-04-26T08:15:07.994Z,100307
2019-04-26T08:16:07.166Z,100304
2019-04-26T08:17:07.103Z,100307
2019-04-26T08:18:07.590Z,100308
2019-04-26T08:19:07.373Z,100303
2019-04-26T08:20:09.598Z,100306
2019-04-26T08:21:12.661Z,100301
2019-04-26T08:23:16.798Z,100308
2019-04-26T08:24:08.981Z,100308
2019-04-26T08:25:09.302Z,100311
2019-04-26T08:26:08.072Z,100306
2019-04-26T08:27:09.683Z,100303
2019-04-26T08:28:08.910Z,100306
2019-04-26T08:29:09.525Z,100308
2019-04-26T08:30:12.656Z,100295
2019-04-26T08:31:09.797Z,100297
2019-04-26T08:32:10.281Z,100296
2019-04-26T08:33:11.921Z,100294
2019-04-26T08:34:09.096Z,100295
2019-04-26T08:35:15.849Z,100298
2019-04-26T08:36:09.493Z,100301
2019-04-26T08:37:09.458Z,100303
2019-04-26T08:38:15.846Z,100302
2019-04-26T08:39:09.893Z,100315
2019-04-26T08:40:22.945Z,100313
2019-04-26T08:41:10.356Z,100316
2019-04-26T08:42:17.971Z,100323
2019-04-26T08:43:12.894Z,100318
2019-04-26T08:44:10.075Z,100322
2019-04-26T08:45:14.131Z,100326
2019-04-26T08:46:19.181Z,100322
2019-04-26T08:47:16.311Z,100320
2019-04-26T08:48:11.256Z,100318
2019-04-26T08:49:12.030Z,100319
2019-04-26T08:50:13.611Z,100318
2019-04-26T08:51:15.263Z,100316
